Airfield :
LOGIN :

Register | Disclaimer

   EN    FR    IT 

 










Legend :    VFR   Marginal VFR   IFR   Intensive IFR   Very Intensive IFR
Visi :
Ceiling :
>= 8 km
>= 3000ft
5 to 8 km
1000 to 3000 ft
1500m to 5 km
500 to 1000 ft
800 to 1500m
200 to 500 ft
< 800m
< 200 ft
Symbols :   Thunderstorms  Fog  Heavy snow  Heavy precipitations  Wind > 20 kt
SIGMETs :     Misc.  Thunderstorms  Icing  Turbulence  Mountain Waves  Volcanic Ashes






- Airport Elevation : 1411 ft
- IATA code : ZHI


LSZG - Grenchen

CURRENT METAR :
  • 280620Z 18003KT 9999 FEW050 15/10 Q1020 NOSIG

EXPIRED METARs :
  • 280550Z VRB01KT 9999 FEW045 14/09 Q1020 NOSIG
  • 280520Z AUTO 22002KT 9999 FEW055 13/09 Q1020
  • 280450Z AUTO 24002KT 9999 FEW039 BKN055 13/10 Q1020
  • 280420Z AUTO 23002KT 9999 OVC055 11/09 Q1020
  • 280350Z AUTO VRB01KT 9999 FEW035 OVC055 11/08 Q1020

TAF TAF LSZG
Valid from the 28 at 06:00 until the 28 at 15:00 UTC


280525Z 2806/2815 VRB02KT 9999 FEW039 BKN055
BECMG 2809/2812 05010KT
PROB30
TEMPO 2809/2815 33010KT
ATIS : +41 32 396 96 33



MET'MAP, your aeronautical weather chart ! - Copyright ORBIFLY December 2007 - Disclaimer

ORBIFLY MET'MAP TEAM :

Programming & Development : Alexandra Zaïnal
Original concept : Baudouin d'Aumeries
Technical & hardware support : Manuel Goepfert
Assistance : Marc-Olivier Méhu

Contact : metmap@orbifly.com




SOURCES & CREDITS :

   NOAA